createdAt,value
2022-10-20T00:01:12.956Z,5.73
2022-10-20T00:03:40.878Z,5.97
2022-10-20T00:06:10.597Z,6.17
2022-10-20T00:08:38.954Z,6.63
2022-10-20T00:11:07.088Z,4.70
2022-10-20T00:13:36.388Z,5.93
2022-10-20T00:16:04.286Z,11.33
2022-10-20T00:18:32.377Z,5.07
2022-10-20T00:21:00.053Z,8.30
2022-10-20T00:23:27.786Z,9.13
2022-10-20T00:26:03.268Z,9.63
2022-10-20T00:28:30.916Z,5.40
2022-10-20T00:30:59.934Z,6.67
2022-10-20T00:33:28.147Z,5.93
2022-10-20T00:35:55.849Z,7.80
2022-10-20T00:38:23.545Z,5.87
2022-10-20T00:40:51.263Z,6.60
2022-10-20T00:43:19.357Z,6.37
2022-10-20T00:45:52.614Z,5.43
2022-10-20T00:48:25.431Z,6.30
2022-10-20T00:50:55.933Z,11.20
2022-10-20T00:53:25.443Z,7.70
2022-10-20T00:55:56.835Z,9.60
2022-10-20T00:58:25.160Z,7.13
2022-10-20T01:00:57.561Z,9.20
2022-10-20T01:03:31.680Z,6.57
2022-10-20T01:05:59.356Z,8.07
2022-10-20T01:08:27.133Z,8.50
2022-10-20T01:11:04.497Z,7.60
2022-10-20T01:13:42.261Z,8.77
2022-10-20T01:16:19.247Z,8.33
2022-10-20T01:18:57.063Z,10.70
2022-10-20T01:21:57.182Z,6.37
2022-10-20T01:24:39.442Z,7.83
2022-10-20T01:27:35.268Z,7.43
2022-10-20T01:30:16.101Z,7.17
2022-10-20T01:33:10.079Z,8.37
2022-10-20T01:35:51.695Z,8.23
2022-10-20T01:38:27.779Z,9.83
2022-10-20T01:41:02.068Z,8.10
2022-10-20T01:43:35.127Z,7.00
2022-10-20T01:46:04.531Z,7.23
2022-10-20T01:48:35.445Z,10.60
2022-10-20T01:51:04.810Z,8.17
2022-10-20T01:53:32.658Z,8.17
2022-10-20T01:56:02.018Z,8.83
2022-10-20T01:58:56.109Z,7.90
2022-10-20T02:01:38.552Z,7.10
2022-10-20T02:04:08.995Z,8.00
2022-10-20T02:06:44.027Z,7.93
2022-10-20T02:09:17.771Z,7.57
2022-10-20T02:11:52.767Z,10.03
2022-10-20T02:14:23.724Z,6.57
2022-10-20T02:16:56.637Z,7.90
2022-10-20T02:19:27.601Z,8.03
2022-10-20T02:21:57.663Z,10.10
2022-10-20T02:24:29.902Z,9.03
2022-10-20T02:27:01.316Z,8.27
2022-10-20T02:29:36.659Z,10.07
2022-10-20T02:32:04.428Z,7.63
2022-10-20T02:34:32.090Z,10.57
2022-10-20T02:37:00.229Z,14.73
2022-10-20T02:39:28.320Z,11.47
2022-10-20T02:41:56.009Z,8.33
2022-10-20T02:44:23.938Z,8.80
2022-10-20T02:46:52.963Z,9.70
2022-10-20T02:49:21.512Z,7.57
2022-10-20T02:51:49.242Z,9.60
2022-10-20T02:54:16.959Z,7.87
2022-10-20T02:56:44.866Z,10.43
2022-10-20T02:59:14.882Z,11.60
2022-10-20T03:01:42.755Z,8.37
2022-10-20T03:04:12.131Z,9.70
2022-10-20T03:06:40.223Z,8.13
2022-10-20T03:09:08.096Z,7.57
2022-10-20T03:11:35.843Z,9.47
2022-10-20T03:14:03.675Z,9.43
2022-10-20T03:16:31.334Z,8.70
2022-10-20T03:19:03.351Z,9.77
2022-10-20T03:21:36.358Z,7.87
2022-10-20T03:24:04.271Z,9.27
2022-10-20T03:26:32.107Z,9.17
2022-10-20T03:28:59.854Z,10.13
2022-10-20T03:31:27.699Z,10.93
2022-10-20T03:33:55.381Z,8.97
2022-10-20T03:36:23.047Z,10.00
2022-10-20T03:38:52.123Z,10.43
2022-10-20T03:41:19.958Z,11.63
2022-10-20T03:43:47.652Z,10.63
2022-10-20T03:46:15.409Z,9.53
2022-10-20T03:48:43.506Z,9.77
2022-10-20T03:51:14.213Z,10.77
2022-10-20T03:53:42.072Z,9.37
2022-10-20T03:56:16.701Z,9.60
2022-10-20T03:58:44.399Z,10.57
2022-10-20T04:01:15.353Z,8.93
2022-10-20T04:03:43.568Z,9.93
2022-10-20T04:06:11.468Z,13.90
2022-10-20T04:08:39.250Z,11.90
2022-10-20T04:11:07.566Z,9.70
2022-10-20T04:13:36.662Z,9.80
2022-10-20T04:16:04.561Z,8.97
2022-10-20T04:18:32.246Z,9.97
2022-10-20T04:20:59.906Z,11.37
2022-10-20T04:23:27.611Z,10.70
2022-10-20T04:25:55.311Z,17.10
2022-10-20T04:28:23.184Z,11.57
2022-10-20T04:30:52.352Z,12.97
2022-10-20T04:33:20.051Z,13.07
2022-10-20T04:35:47.815Z,12.50
2022-10-20T04:38:15.514Z,9.87
2022-10-20T04:40:43.241Z,16.00
2022-10-20T04:43:10.949Z,8.87
2022-10-20T04:45:38.674Z,12.23
2022-10-20T04:48:08.979Z,11.23
2022-10-20T04:50:36.666Z,9.70
2022-10-20T04:53:04.353Z,11.00
2022-10-20T04:55:32.220Z,13.73
2022-10-20T04:57:59.948Z,14.93
2022-10-20T05:00:27.773Z,11.23
2022-10-20T05:02:56.429Z,12.30
2022-10-20T05:05:25.822Z,10.30
2022-10-20T05:07:53.542Z,10.77
2022-10-20T05:10:21.610Z,11.57
2022-10-20T05:12:49.281Z,10.97
2022-10-20T05:15:17.109Z,13.70
2022-10-20T05:17:44.766Z,11.83
2022-10-20T05:20:12.461Z,15.67
2022-10-20T05:22:41.518Z,10.23
2022-10-20T05:25:35.041Z,13.43
2022-10-20T05:27:59.268Z,12.93
2022-10-20T05:30:27.030Z,13.47
2022-10-20T05:32:54.912Z,11.77
2022-10-20T05:35:22.607Z,13.57
2022-10-20T05:37:51.663Z,12.30
2022-10-20T05:40:19.319Z,11.47
2022-10-20T05:42:47.022Z,12.53
2022-10-20T05:45:14.883Z,12.10
2022-10-20T05:47:43.046Z,11.03
2022-10-20T05:50:12.037Z,14.10
2022-10-20T05:52:39.817Z,20.93
2022-10-20T05:55:10.704Z,12.20
2022-10-20T05:57:38.458Z,12.37
2022-10-20T06:00:07.349Z,10.53
2022-10-20T06:02:35.452Z,12.10
2022-10-20T06:05:03.287Z,11.10
2022-10-20T06:07:30.930Z,13.20
2022-10-20T06:09:58.596Z,12.27
2022-10-20T06:12:27.855Z,16.53
2022-10-20T06:14:55.540Z,14.13
2022-10-20T06:17:23.804Z,13.70
2022-10-20T06:19:52.517Z,12.47
2022-10-20T06:22:20.198Z,11.37
2022-10-20T06:24:48.138Z,13.63
2022-10-20T06:27:15.860Z,14.00
2022-10-20T06:29:44.941Z,16.53
2022-10-20T06:34:45.774Z,13.93
2022-10-20T06:37:14.077Z,14.97
2022-10-20T06:39:42.030Z,16.07
2022-10-20T06:42:12.062Z,13.50
2022-10-20T06:44:40.341Z,13.60
2022-10-20T06:47:10.396Z,12.90
2022-10-20T06:49:38.162Z,13.47
2022-10-20T06:52:06.172Z,12.13
2022-10-20T06:54:33.933Z,13.23
2022-10-20T06:57:01.694Z,14.30
2022-10-20T06:59:29.350Z,15.97
2022-10-20T07:01:57.027Z,12.53
2022-10-20T07:04:26.075Z,13.63
2022-10-20T07:06:53.741Z,13.40
2022-10-20T07:09:21.751Z,13.27
2022-10-20T07:11:52.219Z,12.73
2022-10-20T07:14:19.992Z,15.67
2022-10-20T07:16:47.762Z,12.60
2022-10-20T07:19:15.399Z,14.90
2022-10-20T07:21:45.948Z,10.60
2022-10-20T07:24:14.498Z,17.60
2022-10-20T07:26:42.976Z,12.03
2022-10-20T07:29:11.777Z,16.23
2022-10-20T07:31:41.762Z,13.43
2022-10-20T07:34:28.017Z,14.47
2022-10-20T07:36:58.545Z,10.83
2022-10-20T07:39:27.219Z,11.60
2022-10-20T07:41:55.098Z,12.53
2022-10-20T07:44:23.073Z,14.17
2022-10-20T07:46:51.478Z,13.33
2022-10-20T07:52:08.607Z,16.33
2022-10-20T07:54:36.342Z,12.87
2022-10-20T07:57:04.515Z,11.40
2022-10-20T07:59:32.272Z,13.97
2022-10-20T08:02:00.486Z,13.40
2022-10-20T08:04:28.874Z,11.20
2022-10-20T08:06:56.594Z,11.60
2022-10-20T08:09:25.755Z,11.80
2022-10-20T08:11:55.537Z,10.57
2022-10-20T08:14:24.394Z,11.57
2022-10-20T08:16:56.743Z,11.90
2022-10-20T08:19:39.265Z,10.93
2022-10-20T08:22:07.127Z,11.40
2022-10-20T08:24:36.397Z,13.37
2022-10-20T08:27:04.573Z,13.93
2022-10-20T08:29:32.334Z,10.73
2022-10-20T08:32:00.035Z,10.83
2022-10-20T08:34:27.762Z,10.83
2022-10-20T08:36:55.551Z,12.40
2022-10-20T08:39:23.305Z,10.83
2022-10-20T08:42:07.627Z,10.60
2022-10-20T08:44:37.229Z,13.67
2022-10-20T08:47:13.045Z,10.93
2022-10-20T08:49:40.846Z,11.40
2022-10-20T08:52:14.042Z,11.53
2022-10-20T08:54:41.820Z,10.63
2022-10-20T08:57:22.208Z,14.53
2022-10-20T08:59:52.856Z,10.37
2022-10-20T09:02:21.420Z,11.57
2022-10-20T09:04:51.903Z,12.10
2022-10-20T09:07:27.578Z,11.17
2022-10-20T09:10:05.779Z,11.13
2022-10-20T09:12:35.479Z,13.10
2022-10-20T09:15:04.160Z,13.77
2022-10-20T09:17:32.384Z,12.10
2022-10-20T09:20:01.099Z,10.33
2022-10-20T09:22:35.736Z,12.93
2022-10-20T09:25:04.600Z,13.17
2022-10-20T09:27:37.455Z,12.20
2022-10-20T09:30:16.237Z,12.20
2022-10-20T09:32:56.665Z,13.47
2022-10-20T09:35:31.252Z,13.13
2022-10-20T09:38:03.656Z,13.23
2022-10-20T09:40:32.271Z,18.20
2022-10-20T09:43:07.978Z,13.37
2022-10-20T09:45:36.358Z,9.50
2022-10-20T09:48:09.099Z,13.57
2022-10-20T09:50:40.326Z,13.63
2022-10-20T09:53:19.693Z,11.37
2022-10-20T09:55:49.560Z,10.47
2022-10-20T09:58:25.034Z,15.27
2022-10-20T10:01:02.901Z,11.27
2022-10-20T10:03:39.971Z,10.07
2022-10-20T10:06:23.359Z,14.03
2022-10-20T10:08:51.085Z,11.20
2022-10-20T10:11:21.167Z,16.30
2022-10-20T10:13:52.475Z,10.80
2022-10-20T10:16:24.115Z,12.33
2022-10-20T10:18:58.887Z,10.63
2022-10-20T10:21:27.024Z,12.33
2022-10-20T10:23:56.424Z,11.20
2022-10-20T10:26:36.045Z,12.67
2022-10-20T10:29:06.288Z,12.10
2022-10-20T10:31:34.606Z,8.87
2022-10-20T10:34:29.692Z,13.13
2022-10-20T10:36:57.362Z,11.47
2022-10-20T10:39:25.076Z,9.87
2022-10-20T10:42:05.326Z,10.77
2022-10-20T10:44:50.473Z,14.63
2022-10-20T10:47:40.204Z,11.37
2022-10-20T10:50:26.876Z,10.50
2022-10-20T10:53:08.353Z,11.90
2022-10-20T10:55:48.693Z,8.77
2022-10-20T10:58:31.119Z,11.00
2022-10-20T11:01:11.386Z,11.80
2022-10-20T11:03:59.718Z,12.93
2022-10-20T11:06:35.282Z,13.97
2022-10-20T11:09:24.347Z,10.20
2022-10-20T11:12:05.931Z,9.87
2022-10-20T11:14:46.532Z,13.33
2022-10-20T11:17:35.383Z,11.00
2022-10-20T11:20:19.259Z,10.83
2022-10-20T11:23:01.202Z,10.70
2022-10-20T11:25:34.212Z,9.80
2022-10-20T11:28:02.101Z,13.20
2022-10-20T11:30:31.503Z,11.13
2022-10-20T11:33:08.999Z,9.10
2022-10-20T11:35:43.415Z,11.40
2022-10-20T11:38:18.233Z,9.83
2022-10-20T11:40:50.921Z,11.20
2022-10-20T11:43:24.724Z,10.07
2022-10-20T11:45:56.165Z,12.67
2022-10-20T11:48:31.204Z,8.73
2022-10-20T11:51:19.965Z,10.47
2022-10-20T11:54:11.513Z,11.57
2022-10-20T11:56:57.669Z,9.47
2022-10-20T11:59:48.494Z,10.40
2022-10-20T12:02:36.960Z,11.73
2022-10-20T12:05:35.193Z,11.13
2022-10-20T12:08:35.266Z,9.23
2022-10-20T12:11:12.346Z,12.10
2022-10-20T12:13:51.401Z,9.63
2022-10-20T12:16:52.460Z,13.40
2022-10-20T12:19:22.416Z,9.50
2022-10-20T12:21:58.990Z,11.53
2022-10-20T12:24:37.759Z,9.07
2022-10-20T12:27:22.110Z,10.67
2022-10-20T12:30:05.737Z,10.53
2022-10-20T12:32:56.799Z,9.23
2022-10-20T12:35:59.937Z,11.80
2022-10-20T12:38:31.059Z,10.17
2022-10-20T12:41:01.130Z,9.23
2022-10-20T12:43:36.379Z,11.17
2022-10-20T12:46:21.345Z,9.90
2022-10-20T12:48:56.687Z,11.70
2022-10-20T12:51:36.178Z,10.27
2022-10-20T12:54:10.175Z,8.50
2022-10-20T12:56:40.596Z,12.67
2022-10-20T12:59:24.404Z,9.30
2022-10-20T13:02:37.824Z,9.57
2022-10-20T13:05:39.791Z,13.40
2022-10-20T13:08:32.503Z,11.20
2022-10-20T13:11:49.400Z,8.93
2022-10-20T13:14:34.372Z,11.90
2022-10-20T13:17:07.108Z,11.57
2022-10-20T13:19:39.807Z,9.63
2022-10-20T13:22:32.272Z,12.27
2022-10-20T13:25:03.919Z,10.63
2022-10-20T13:27:32.162Z,10.87
2022-10-20T13:30:01.242Z,11.77
2022-10-20T13:32:43.463Z,10.70
2022-10-20T13:35:28.623Z,12.03
2022-10-20T13:38:01.362Z,9.67
2022-10-20T13:40:41.777Z,11.73
2022-10-20T13:43:24.960Z,10.07
2022-10-20T13:46:15.131Z,10.47
2022-10-20T13:48:56.119Z,13.77
2022-10-20T13:51:28.598Z,9.40
2022-10-20T13:53:59.275Z,10.00
2022-10-20T13:56:35.176Z,11.80
2022-10-20T13:59:06.111Z,8.67
2022-10-20T14:01:37.359Z,9.87
2022-10-20T14:04:24.351Z,10.30
2022-10-20T14:06:52.135Z,8.93
2022-10-20T14:09:21.921Z,14.30
2022-10-20T14:11:53.476Z,8.03
2022-10-20T14:14:24.087Z,10.33
2022-10-20T14:16:57.151Z,13.53
2022-10-20T14:19:28.135Z,9.13
2022-10-20T14:21:58.258Z,8.63
2022-10-20T14:24:33.326Z,9.67
2022-10-20T14:27:03.369Z,9.67
2022-10-20T14:29:34.662Z,10.33
2022-10-20T14:32:03.877Z,9.80
2022-10-20T14:34:35.909Z,8.53
2022-10-20T14:37:04.263Z,9.83
2022-10-20T14:39:37.528Z,8.67
2022-10-20T14:42:17.280Z,12.23
2022-10-20T14:44:45.905Z,10.33
2022-10-20T14:47:16.607Z,7.67
2022-10-20T14:49:48.991Z,10.10
2022-10-20T14:52:22.293Z,9.20
2022-10-20T14:54:50.993Z,7.13
2022-10-20T14:57:45.910Z,7.00
2022-10-20T15:00:33.189Z,7.37
2022-10-20T15:03:06.856Z,7.30
2022-10-20T15:05:41.387Z,8.37
2022-10-20T15:08:12.480Z,8.03
2022-10-20T15:10:40.322Z,6.97
2022-10-20T15:13:26.533Z,10.67
2022-10-20T15:15:56.022Z,8.90
2022-10-20T15:18:25.510Z,7.10
2022-10-20T15:20:54.194Z,8.73
2022-10-20T15:23:23.349Z,7.80
2022-10-20T15:25:53.963Z,6.53
2022-10-20T15:28:26.118Z,6.20
2022-10-20T15:30:54.444Z,8.43
2022-10-20T15:33:22.336Z,6.63
2022-10-20T15:35:54.204Z,7.23
2022-10-20T15:38:22.434Z,5.27
2022-10-20T15:40:50.213Z,5.93
2022-10-20T15:43:19.406Z,6.17
2022-10-20T15:45:50.186Z,8.50
2022-10-20T15:48:18.721Z,6.73
2022-10-20T15:50:47.183Z,5.53
2022-10-20T15:53:17.754Z,11.03
2022-10-20T15:55:45.998Z,7.57
2022-10-20T15:58:13.997Z,6.30
2022-10-20T16:00:41.847Z,3.57
2022-10-20T16:03:16.197Z,6.70
2022-10-20T16:05:43.967Z,5.10
2022-10-20T16:08:11.969Z,6.37
2022-10-20T16:10:43.408Z,4.97
2022-10-20T16:13:11.813Z,3.73
2022-10-20T16:15:39.716Z,4.53
2022-10-20T16:18:09.776Z,6.83
2022-10-20T16:20:38.005Z,5.37
2022-10-20T16:23:05.680Z,4.47
2022-10-20T16:25:33.421Z,6.60
2022-10-20T16:28:02.729Z,2.97
2022-10-20T16:30:30.436Z,3.17
2022-10-20T16:32:58.109Z,4.53
2022-10-20T16:35:25.978Z,5.77
2022-10-20T16:37:53.814Z,5.10
2022-10-20T16:40:21.594Z,3.10
2022-10-20T16:42:49.324Z,3.27
2022-10-20T16:45:18.434Z,3.33
2022-10-20T16:47:46.175Z,4.13
2022-10-20T16:50:13.935Z,3.37
2022-10-20T16:52:41.585Z,5.90
2022-10-20T16:55:10.374Z,2.40
2022-10-20T16:57:39.886Z,5.23
2022-10-20T17:00:10.011Z,4.57
2022-10-20T17:02:42.925Z,4.13
2022-10-20T17:05:11.023Z,4.57
2022-10-20T17:07:39.133Z,3.83
2022-10-20T17:10:08.204Z,4.13
2022-10-20T17:12:35.934Z,2.90
2022-10-20T17:15:03.861Z,4.30
2022-10-20T17:17:31.603Z,4.03
2022-10-20T17:20:00.717Z,3.77
2022-10-20T17:22:28.507Z,3.33
2022-10-20T17:24:56.208Z,3.47
2022-10-20T17:27:24.010Z,3.93
2022-10-20T17:29:51.681Z,3.20
2022-10-20T17:32:19.366Z,2.57
2022-10-20T17:34:47.181Z,4.17
2022-10-20T17:37:16.319Z,3.63
2022-10-20T17:39:44.021Z,2.63
2022-10-20T17:42:11.857Z,4.07
2022-10-20T17:44:40.594Z,5.63
2022-10-20T17:47:08.633Z,6.70
2022-10-20T17:49:36.286Z,3.60
2022-10-20T17:52:04.133Z,4.13
2022-10-20T17:54:33.278Z,2.93
2022-10-20T17:57:01.069Z,3.97
2022-10-20T17:59:34.683Z,6.33
2022-10-20T18:02:10.970Z,5.90
2022-10-20T18:04:38.705Z,5.60
2022-10-20T18:07:06.497Z,2.70
2022-10-20T18:09:35.782Z,4.70
2022-10-20T18:12:03.620Z,4.60
2022-10-20T18:14:31.331Z,5.23
2022-10-20T18:16:59.060Z,4.17
2022-10-20T18:19:26.728Z,4.93
2022-10-20T18:21:54.416Z,6.47
2022-10-20T18:24:22.194Z,5.93
2022-10-20T18:26:51.363Z,5.70
2022-10-20T18:29:19.131Z,4.27
2022-10-20T18:31:47.877Z,3.77
2022-10-20T18:34:20.434Z,5.53
2022-10-20T18:36:48.553Z,4.17
2022-10-20T18:39:16.922Z,5.33
2022-10-20T18:41:46.386Z,5.47
2022-10-20T18:44:17.001Z,6.67
2022-10-20T18:46:46.292Z,4.07
2022-10-20T18:49:16.673Z,6.97
2022-10-20T18:51:47.433Z,4.30
2022-10-20T18:54:16.141Z,6.50
2022-10-20T18:56:44.116Z,5.50
2022-10-20T18:59:14.163Z,4.93
2022-10-20T19:01:43.374Z,5.67
2022-10-20T19:04:12.308Z,5.10
2022-10-20T19:06:42.161Z,6.73
2022-10-20T19:09:12.073Z,6.20
2022-10-20T19:11:41.263Z,5.23
2022-10-20T19:14:11.428Z,5.53
2022-10-20T19:16:40.415Z,6.27
2022-10-20T19:19:10.095Z,5.17
2022-10-20T19:21:38.290Z,5.73
2022-10-20T19:24:08.537Z,5.07
2022-10-20T19:26:37.709Z,5.07
2022-10-20T19:29:07.458Z,6.50
2022-10-20T19:31:38.697Z,8.90
2022-10-20T19:34:09.953Z,6.43
2022-10-20T19:36:38.287Z,7.57
2022-10-20T19:39:07.514Z,5.60
2022-10-20T19:41:35.560Z,4.50
2022-10-20T19:44:03.389Z,5.00
2022-10-20T19:46:31.278Z,6.23
2022-10-20T19:48:58.969Z,6.63
2022-10-20T19:51:28.117Z,6.57
2022-10-20T19:53:56.074Z,5.77
2022-10-20T19:56:24.183Z,6.20
2022-10-20T19:58:52.306Z,5.90
2022-10-20T20:01:20.040Z,5.80
2022-10-20T20:03:48.093Z,10.03
2022-10-20T20:06:18.103Z,9.13
2022-10-20T20:08:50.214Z,8.00
2022-10-20T20:11:23.787Z,6.03
2022-10-20T20:13:52.558Z,10.50
2022-10-20T20:16:21.051Z,6.13
2022-10-20T20:18:48.902Z,7.60
2022-10-20T20:21:17.283Z,6.57
2022-10-20T20:23:58.880Z,6.93
2022-10-20T20:26:29.252Z,9.63
2022-10-20T20:28:57.211Z,7.33
2022-10-20T20:31:25.470Z,7.63
2022-10-20T20:33:53.865Z,10.00
2022-10-20T20:36:21.815Z,9.57
2022-10-20T20:38:52.514Z,6.53
2022-10-20T20:41:21.789Z,5.67
2022-10-20T20:43:51.071Z,6.30
2022-10-20T20:46:20.670Z,8.53
2022-10-20T20:48:48.412Z,9.27
2022-10-20T20:51:16.218Z,9.40
2022-10-20T20:53:44.144Z,7.23
2022-10-20T20:56:13.765Z,8.23
2022-10-20T20:58:42.138Z,7.83
2022-10-20T21:01:14.576Z,10.17
2022-10-20T21:03:43.419Z,7.17
2022-10-20T21:06:12.878Z,10.00
2022-10-20T21:08:43.675Z,8.00
2022-10-20T21:11:13.918Z,10.13
2022-10-20T21:13:42.958Z,7.70
2022-10-20T21:16:15.100Z,7.53
2022-10-20T21:18:44.784Z,8.27
2022-10-20T21:21:14.077Z,5.73
2022-10-20T21:23:42.218Z,7.50
2022-10-20T21:26:11.312Z,6.53
2022-10-20T21:28:39.383Z,8.13
2022-10-20T21:31:08.271Z,6.93
2022-10-20T21:33:38.211Z,8.33
2022-10-20T21:36:08.725Z,7.30
2022-10-20T21:38:37.920Z,10.20
2022-10-20T21:41:06.821Z,8.47
2022-10-20T21:43:36.131Z,8.60
2022-10-20T21:46:14.891Z,7.90
2022-10-20T21:48:45.428Z,6.83
2022-10-20T21:51:14.882Z,9.67
2022-10-20T21:53:43.112Z,7.90
2022-10-20T21:56:11.381Z,8.33
2022-10-20T21:58:39.412Z,6.63
2022-10-20T22:01:11.404Z,6.50
2022-10-20T22:03:39.500Z,5.67
2022-10-20T22:06:09.749Z,6.73
2022-10-20T22:08:38.376Z,5.83
2022-10-20T22:11:07.424Z,7.33
2022-10-20T22:13:35.373Z,6.53
2022-10-20T22:16:03.442Z,8.23
2022-10-20T22:18:31.172Z,6.73
2022-10-20T22:21:03.379Z,8.07
2022-10-20T22:23:32.453Z,8.47
2022-10-20T22:26:00.162Z,8.60
2022-10-20T22:28:28.216Z,7.73
2022-10-20T22:30:56.103Z,10.27
2022-10-20T22:33:24.387Z,9.10
2022-10-20T22:35:52.093Z,7.50
2022-10-20T22:38:19.790Z,7.47
2022-10-20T22:40:48.934Z,8.97
2022-10-20T22:43:16.601Z,6.40
2022-10-20T22:45:44.428Z,7.17
2022-10-20T22:48:12.144Z,9.67
2022-10-20T22:50:39.868Z,6.87
2022-10-20T22:53:07.549Z,6.33
2022-10-20T22:55:35.259Z,9.53
2022-10-20T22:58:04.762Z,7.00
2022-10-20T23:00:32.671Z,9.87
2022-10-20T23:03:00.358Z,7.13
2022-10-20T23:05:28.207Z,5.60
2022-10-20T23:07:56.032Z,8.60
2022-10-20T23:10:23.816Z,6.53
2022-10-20T23:12:51.532Z,7.23
2022-10-20T23:15:20.710Z,7.87
2022-10-20T23:17:48.384Z,6.77
2022-10-20T23:20:16.393Z,6.43
2022-10-20T23:22:44.112Z,8.40
2022-10-20T23:25:11.813Z,10.67
2022-10-20T23:27:39.660Z,7.67
2022-10-20T23:30:08.862Z,6.33
2022-10-20T23:32:37.945Z,9.03
2022-10-20T23:35:06.445Z,10.20
2022-10-20T23:37:34.153Z,6.40
2022-10-20T23:40:01.802Z,7.37
2022-10-20T23:42:29.491Z,8.00
2022-10-20T23:44:57.156Z,10.80
2022-10-20T23:47:24.905Z,9.60
2022-10-20T23:49:53.949Z,7.43
2022-10-20T23:52:21.660Z,7.13
2022-10-20T23:54:49.492Z,6.33
2022-10-20T23:57:17.178Z,8.90
2022-10-20T23:59:44.855Z,6.40
